Time;durP1;ratioP1;P1;durP2;ratioP2;P2;SDS_P1;SDS_P2;PMS_P1;PMS_P2;Temp;Humidity;BMP_temperature;BMP_pressure;BME280_temperature;BME280_humidity;BME280_pressure;Samples;Min_cycle;Max_cycle;Signal;HPM_P1;HPM_P2
2023/04/02 00:01:47;;;;;;;0.85;0.75;;;9.10;99.90;;;;;;6224027;28;20517;-77
2023/04/02 00:05:33;;;;;;;2.20;1.00;;;9.10;99.90;;;;;;6223593;28;20050;-77
2023/04/02 00:08:39;;;;;;;0.80;0.80;;;9.10;99.90;;;;;;6200576;28;20077;-77
2023/04/02 00:11:43;;;;;;;1.50;0.75;;;9.00;99.90;;;;;;6198853;28;20117;-77
2023/04/02 00:14:51;;;;;;;1.65;0.60;;;9.00;99.90;;;;;;6199153;28;20046;-77
2023/04/02 00:17:53;;;;;;;0.60;0.57;;;9.00;99.90;;;;;;6199962;28;20081;-77
2023/04/02 00:21:05;;;;;;;3.13;0.88;;;8.90;99.90;;;;;;6199910;28;20043;-77
2023/04/02 00:24:14;;;;;;;2.38;1.55;;;8.90;99.90;;;;;;6198881;28;20050;-77
2023/04/02 00:27:17;;;;;;;0.50;0.45;;;8.90;99.90;;;;;;6199030;28;20156;-76
2023/04/02 00:30:18;;;;;;;0.50;0.50;;;8.90;99.90;;;;;;6198479;28;20067;-77
2023/04/02 00:33:23;;;;;;;0.40;0.40;;;8.90;99.90;;;;;;6193579;28;20054;-76
2023/04/02 00:36:29;;;;;;;0.50;0.50;;;8.90;99.90;;;;;;6194296;28;20469;-76
2023/04/02 00:39:38;;;;;;;0.80;0.40;;;8.90;99.90;;;;;;6198213;28;20402;-77
2023/04/02 00:42:40;;;;;;;2.67;0.60;;;8.90;99.90;;;;;;6198129;28;20042;-76
2023/04/02 00:45:49;;;;;;;1.58;1.48;;;9.00;99.90;;;;;;6197936;28;20061;-77
2023/04/02 00:48:57;;;;;;;0.60;0.50;;;9.00;99.90;;;;;;6198324;28;20050;-76
2023/04/02 00:52:02;;;;;;;0.40;0.40;;;9.00;99.90;;;;;;6197945;28;20050;-76
2023/04/02 00:55:09;;;;;;;0.50;0.50;;;9.00;99.90;;;;;;6197135;28;20046;-76
2023/04/02 00:58:19;;;;;;;0.82;0.63;;;9.10;99.90;;;;;;6197409;28;20532;-76
2023/04/02 01:01:24;;;;;;;0.30;0.30;;;9.10;99.90;;;;;;6198148;28;20417;-76
2023/04/02 01:04:33;;;;;;;0.73;0.73;;;9.10;99.90;;;;;;6197029;28;20050;-77
2023/04/02 01:07:56;;;;;;;0.98;0.47;;;9.10;99.90;;;;;;6197582;28;20047;-76
2023/04/02 01:11:07;;;;;;;0.30;0.30;;;9.20;99.90;;;;;;6197386;28;20046;-76
2023/04/02 01:14:18;;;;;;;0.38;0.38;;;9.20;99.90;;;;;;6196769;28;20416;-76
2023/04/02 01:17:32;;;;;;;1.50;1.40;;;9.20;99.90;;;;;;6197875;28;20524;-76
2023/04/02 01:21:11;;;;;;;0.28;0.28;;;9.20;99.90;;;;;;6197296;28;20428;-76
2023/04/02 01:24:13;;;;;;;0.20;0.20;;;9.20;99.90;;;;;;6196920;28;20065;-76
2023/04/02 01:27:20;;;;;;;0.95;0.50;;;9.20;99.90;;;;;;6197371;28;20062;-76
2023/04/02 01:30:24;;;;;;;0.83;0.43;;;9.20;99.90;;;;;;6197127;28;20122;-76
2023/04/02 01:33:30;;;;;;;2.30;0.50;;;9.20;99.90;;;;;;6197354;28;20811;-76
2023/04/02 01:36:39;;;;;;;0.40;0.40;;;9.20;99.90;;;;;;6196899;28;20058;-77
2023/04/02 01:39:59;;;;;;;4.88;0.70;;;9.30;99.90;;;;;;6196979;28;20448;-76
2023/04/02 01:43:13;;;;;;;0.40;0.40;;;9.20;99.90;;;;;;6196658;28;20046;-76
2023/04/02 01:46:27;;;;;;;2.15;0.47;;;9.10;99.90;;;;;;6197141;28;20046;-77
2023/04/02 01:49:29;;;;;;;0.40;0.40;;;9.10;99.90;;;;;;6197350;28;20054;-77
2023/04/02 01:52:39;;;;;;;1.23;0.52;;;9.10;99.90;;;;;;6196550;28;20054;-78
2023/04/02 01:55:43;;;;;;;0.98;0.50;;;9.10;99.90;;;;;;6196605;28;20046;-78
2023/04/02 01:58:48;;;;;;;0.75;0.75;;;9.10;99.90;;;;;;6196906;28;20046;-78
2023/04/02 02:01:58;;;;;;;0.63;0.63;;;9.10;99.90;;;;;;6197615;28;20512;-77
2023/04/02 02:05:01;;;;;;;1.40;0.60;;;9.10;99.90;;;;;;6197308;28;20141;-77
2023/04/02 02:08:03;;;;;;;1.80;0.43;;;9.10;99.90;;;;;;6196858;28;20050;-77
2023/04/02 02:11:06;;;;;;;0.68;0.55;;;9.10;99.90;;;;;;6199124;28;20042;-77
2023/04/02 02:14:14;;;;;;;0.98;0.88;;;9.10;99.90;;;;;;6201286;28;20649;-78
2023/04/02 02:17:32;;;;;;;0.70;0.68;;;9.10;99.90;;;;;;6201963;28;20054;-77
2023/04/02 02:20:35;;;;;;;1.15;0.60;;;9.10;99.90;;;;;;6201542;28;20525;-77
2023/04/02 02:23:37;;;;;;;0.88;0.75;;;9.00;99.90;;;;;;6200991;28;20472;-77
2023/04/02 02:26:41;;;;;;;0.68;0.43;;;9.00;99.90;;;;;;6201469;28;20038;-78
2023/04/02 02:29:45;;;;;;;0.95;0.82;;;8.90;99.90;;;;;;6202028;28;20061;-77
2023/04/02 02:33:00;;;;;;;1.10;0.50;;;8.90;99.90;;;;;;6201462;28;20053;-77
2023/04/02 02:36:05;;;;;;;0.60;0.60;;;8.80;99.90;;;;;;6200642;28;20425;-78
2023/04/02 02:39:13;;;;;;;0.60;0.60;;;8.80;99.90;;;;;;6201273;28;20057;-77
2023/04/02 02:42:23;;;;;;;1.10;0.70;;;8.70;99.90;;;;;;6201339;28;20042;-77
2023/04/02 02:45:28;;;;;;;0.63;0.60;;;8.70;99.90;;;;;;6201307;28;20054;-77
2023/04/02 02:48:37;;;;;;;1.25;0.80;;;8.70;99.90;;;;;;6200860;28;20053;-78
2023/04/02 02:51:42;;;;;;;1.85;0.82;;;8.70;99.90;;;;;;6200559;28;20047;-78
2023/04/02 02:54:48;;;;;;;1.20;0.95;;;8.80;99.90;;;;;;6200214;28;20233;-78
2023/04/02 02:57:54;;;;;;;1.02;0.70;;;8.80;99.90;;;;;;6200667;28;20061;-78
2023/04/02 03:00:55;;;;;;;1.00;0.60;;;8.80;99.90;;;;;;6201350;28;20046;-78
2023/04/02 03:03:59;;;;;;;4.85;1.30;;;8.80;99.90;;;;;;6200338;28;20042;-78
2023/04/02 03:07:04;;;;;;;0.70;0.60;;;8.80;99.90;;;;;;6200782;28;20046;-79
2023/04/02 03:10:14;;;;;;;1.05;1.05;;;8.80;99.90;;;;;;6200206;28;20065;-77
2023/04/02 03:13:21;;;;;;;3.42;0.50;;;8.80;99.90;;;;;;6200713;28;20050;-77
2023/04/02 03:16:28;;;;;;;3.00;1.10;;;8.70;99.90;;;;;;6200211;28;20413;-77
2023/04/02 03:19:38;;;;;;;1.60;1.03;;;8.80;99.90;;;;;;6200333;28;20512;-77
2023/04/02 03:22:45;;;;;;;0.82;0.73;;;8.80;99.90;;;;;;6200042;28;20042;-77
2023/04/02 03:25:53;;;;;;;1.35;0.90;;;8.80;99.90;;;;;;6200524;28;20054;-78
2023/04/02 03:28:59;;;;;;;1.85;0.80;;;8.80;99.90;;;;;;6200284;28;20390;-78
2023/04/02 03:32:05;;;;;;;0.70;0.70;;;8.80;99.90;;;;;;6200510;28;20051;-77
2023/04/02 03:35:18;;;;;;;0.82;0.63;;;8.80;99.90;;;;;;6199724;28;20054;-77
2023/04/02 03:38:25;;;;;;;0.90;0.80;;;8.80;99.90;;;;;;6199735;28;20046;-77
2023/04/02 03:41:33;;;;;;;0.63;0.63;;;8.80;99.90;;;;;;6200201;28;20409;-77
2023/04/02 03:44:38;;;;;;;1.33;0.93;;;8.80;99.90;;;;;;6199102;28;20058;-77
2023/04/02 03:47:44;;;;;;;0.95;0.80;;;8.80;99.90;;;;;;6199500;28;20492;-77
2023/04/02 03:50:53;;;;;;;2.95;1.20;;;8.80;99.90;;;;;;6199692;28;20039;-77
2023/04/02 03:53:56;;;;;;;1.05;0.90;;;8.90;99.90;;;;;;6198996;28;20046;-77
2023/04/02 03:56:58;;;;;;;1.75;0.95;;;8.80;99.90;;;;;;6200077;28;20062;-77
2023/04/02 04:00:05;;;;;;;0.70;0.70;;;8.80;99.90;;;;;;6199418;28;20130;-77
2023/04/02 04:03:12;;;;;;;1.42;0.80;;;8.80;99.90;;;;;;6199386;28;20180;-77
2023/04/02 04:06:20;;;;;;;3.00;1.15;;;8.80;99.90;;;;;;6199315;28;20057;-79
2023/04/02 04:09:24;;;;;;;;;;;8.70;99.90;;;;;;6200408;28;20493;-77
2023/04/02 04:12:30;;;;;;;1.88;0.95;;;8.70;99.90;;;;;;6198877;28;19926;-77
2023/04/02 04:15:36;;;;;;;1.48;1.02;;;8.70;99.90;;;;;;6198846;28;20042;-77
2023/04/02 04:18:45;;;;;;;2.80;1.15;;;8.70;99.90;;;;;;6199266;28;20042;-77
2023/04/02 04:21:48;;;;;;;1.45;1.35;;;8.70;99.90;;;;;;6198278;28;20078;-78
2023/04/02 04:24:50;;;;;;;3.15;1.27;;;8.70;99.90;;;;;;6198704;28;20055;-77
2023/04/02 04:28:04;;;;;;;8.48;2.25;;;8.70;99.90;;;;;;6198328;28;20054;-78
2023/04/02 04:31:19;;;;;;;1.42;1.33;;;8.70;99.90;;;;;;6200553;28;20102;-77
2023/04/02 04:34:28;;;;;;;2.42;2.13;;;8.70;99.90;;;;;;6201563;28;20046;-81
2023/04/02 04:37:35;;;;;;;2.45;1.27;;;8.70;99.90;;;;;;6204769;28;20061;-79
2023/04/02 04:40:43;;;;;;;1.95;1.30;;;8.70;99.90;;;;;;6203118;28;20046;-81
2023/04/02 04:43:47;;;;;;;1.60;1.30;;;8.70;99.90;;;;;;6203384;28;20057;-79
2023/04/02 04:46:56;;;;;;;2.63;1.20;;;8.80;99.90;;;;;;6212651;28;20046;-81
2023/04/02 04:50:01;;;;;;;;;;;8.70;99.90;;;;;;6214329;28;20057;-81
2023/04/02 04:53:12;;;;;;;3.08;1.48;;;8.70;99.90;;;;;;6213692;28;20484;-81
2023/04/02 04:56:20;;;;;;;3.65;1.33;;;8.80;99.90;;;;;;6211878;28;20043;-81
2023/04/02 04:59:26;;;;;;;2.50;1.30;;;8.70;99.90;;;;;;6212866;28;20420;-81
2023/04/02 05:02:32;;;;;;;1.88;1.20;;;8.80;99.90;;;;;;6213000;28;20042;-82
2023/04/02 05:05:38;;;;;;;2.03;1.92;;;8.80;99.90;;;;;;6213135;28;20050;-81
2023/04/02 05:08:45;;;;;;;1.83;1.35;;;8.70;99.90;;;;;;6212718;28;20053;-81
2023/04/02 05:11:51;;;;;;;4.18;2.10;;;8.80;99.90;;;;;;6212454;28;20043;-81
2023/04/02 05:14:58;;;;;;;3.10;1.50;;;8.80;99.90;;;;;;6210360;28;20054;-79
2023/04/02 05:18:16;;;;;;;5.72;1.77;;;8.70;99.90;;;;;;6202030;28;20531;-79
2023/04/02 05:21:23;;;;;;;4.00;1.92;;;8.70;99.90;;;;;;6202156;28;20244;-79
2023/04/02 05:24:50;;;;;;;4.20;1.85;;;8.80;99.90;;;;;;6202035;28;20516;-79
2023/04/02 05:27:57;;;;;;;6.63;6.03;;;8.80;99.90;;;;;;6201443;28;20542;-79
2023/04/02 05:31:03;;;;;;;2.60;1.15;;;8.80;99.90;;;;;;6201509;28;20129;-79
2023/04/02 05:34:04;;;;;;;1.42;1.20;;;8.80;99.90;;;;;;6200450;28;20062;-79
2023/04/02 05:37:12;;;;;;;3.70;1.23;;;8.80;99.90;;;;;;6201687;28;20054;-79
2023/04/02 05:40:21;;;;;;;2.67;2.47;;;8.80;99.90;;;;;;6200443;28;20049;-78
2023/04/02 05:43:25;;;;;;;2.40;1.33;;;8.90;99.90;;;;;;6200614;28;20105;-79
2023/04/02 05:46:31;;;;;;;1.75;1.38;;;8.80;99.90;;;;;;6204970;28;20533;-80
2023/04/02 05:49:44;;;;;;;1.85;1.30;;;8.80;99.90;;;;;;6205357;28;20060;-81
2023/04/02 05:52:50;;;;;;;4.35;1.40;;;8.80;99.90;;;;;;6203086;28;20054;-80
2023/04/02 05:55:58;;;;;;;2.63;1.20;;;8.80;99.90;;;;;;6202597;28;20058;-80
2023/04/02 05:59:02;;;;;;;;;;;8.80;99.90;;;;;;6201623;28;20062;-80
2023/04/02 06:02:08;;;;;;;2.20;1.60;;;8.80;99.90;;;;;;6202560;28;19922;-80
2023/04/02 06:05:15;;;;;;;3.95;2.10;;;8.90;99.90;;;;;;6201672;28;20715;-81
2023/04/02 06:08:22;;;;;;;1.83;1.50;;;8.90;99.90;;;;;;6202306;28;20498;-78
2023/04/02 06:11:30;;;;;;;1.83;1.55;;;8.90;99.90;;;;;;6201591;28;20042;-79
2023/04/02 06:14:31;;;;;;;2.67;1.98;;;8.90;99.90;;;;;;6201622;28;20042;-81
2023/04/02 06:17:46;;;;;;;4.10;2.10;;;9.00;99.90;;;;;;6202568;28;20050;-81
2023/04/02 06:20:48;;;;;;;4.60;1.63;;;9.00;99.90;;;;;;6202055;28;20054;-80
2023/04/02 06:23:55;;;;;;;4.57;2.17;;;9.00;99.90;;;;;;6201712;28;20054;-80
2023/04/02 06:27:01;;;;;;;3.28;1.60;;;9.10;99.90;;;;;;6203617;28;20077;-80
2023/04/02 06:30:07;;;;;;;4.18;2.67;;;9.10;99.90;;;;;;6203366;28;20052;-81
2023/04/02 06:33:12;;;;;;;2.25;2.05;;;9.20;99.90;;;;;;6203868;28;20049;-80
2023/04/02 06:36:14;;;;;;;2.50;1.90;;;9.20;99.90;;;;;;6202386;28;20050;-80
2023/04/02 06:39:21;;;;;;;2.85;1.40;;;9.20;99.90;;;;;;6203265;28;20066;-80
2023/04/02 06:42:28;;;;;;;3.33;1.60;;;9.30;99.90;;;;;;6200886;28;20038;-79
2023/04/02 06:45:34;;;;;;;2.53;1.50;;;9.30;99.90;;;;;;6202106;28;20310;-79
2023/04/02 06:48:37;;;;;;;3.42;1.40;;;9.30;99.90;;;;;;6200808;28;20046;-80
2023/04/02 06:51:40;;;;;;;3.72;1.63;;;9.30;99.90;;;;;;6206674;28;20066;-81
2023/04/02 06:54:42;;;;;;;2.15;1.45;;;9.30;99.90;;;;;;6213611;28;20045;-80
2023/04/02 06:57:45;;;;;;;3.00;2.03;;;9.30;99.90;;;;;;6217934;28;20064;-80
2023/04/02 07:00:48;;;;;;;4.60;1.30;;;9.40;99.90;;;;;;6216040;28;20114;-81
2023/04/02 07:03:50;;;;;;;1.45;1.25;;;9.40;99.90;;;;;;6215084;28;20603;-81
2023/04/02 07:06:52;;;;;;;2.10;1.30;;;9.40;99.90;;;;;;6216244;28;20065;-82
2023/04/02 07:09:54;;;;;;;2.65;1.75;;;9.40;99.90;;;;;;6216119;28;20061;-81
2023/04/02 07:12:57;;;;;;;2.38;1.40;;;9.40;99.90;;;;;;6218140;28;20050;-80
2023/04/02 07:15:59;;;;;;;2.05;1.27;;;9.50;99.90;;;;;;6217757;28;20145;-80
2023/04/02 07:19:02;;;;;;;1.75;1.50;;;9.50;99.90;;;;;;6218517;28;20050;-80
2023/04/02 07:22:04;;;;;;;3.78;1.65;;;9.50;99.90;;;;;;6210305;28;20132;-80
2023/04/02 07:25:13;;;;;;;4.50;1.77;;;9.60;99.90;;;;;;6236974;28;20054;-81
2023/04/02 07:28:26;;;;;;;2.90;1.25;;;9.60;99.90;;;;;;6234428;28;20408;-82
2023/04/02 07:31:29;;;;;;;5.57;1.20;;;9.70;99.90;;;;;;6233927;28;20137;-82
2023/04/02 07:34:30;;;;;;;2.22;1.40;;;9.80;99.90;;;;;;6232605;28;20042;-81
2023/04/02 07:37:32;;;;;;;1.88;1.10;;;9.80;99.90;;;;;;6233165;28;20085;-81
2023/04/02 07:40:34;;;;;;;3.25;1.48;;;9.90;99.90;;;;;;6233875;28;20056;-82
2023/04/02 07:43:38;;;;;;;1.13;0.85;;;10.00;99.90;;;;;;6230622;28;20088;-81
2023/04/02 07:46:39;;;;;;;1.70;1.20;;;10.00;99.90;;;;;;6229722;28;20042;-80
2023/04/02 07:49:41;;;;;;;1.38;1.27;;;10.10;99.90;;;;;;6230896;28;20505;-81
2023/04/02 07:52:43;;;;;;;1.27;1.10;;;10.10;99.90;;;;;;6229858;28;20061;-80
2023/04/02 07:55:45;;;;;;;1.02;0.93;;;10.20;99.90;;;;;;6230238;28;20045;-83
2023/04/02 07:58:48;;;;;;;2.70;1.08;;;10.20;99.90;;;;;;6232776;28;20046;-83
2023/04/02 08:01:51;;;;;;;1.77;1.05;;;10.20;99.90;;;;;;6230095;28;20061;-82
2023/04/02 08:04:53;;;;;;;3.63;1.00;;;10.20;99.90;;;;;;6229890;28;20054;-83
2023/04/02 08:07:55;;;;;;;1.98;0.90;;;10.30;99.90;;;;;;6224643;28;20049;-81
2023/04/02 08:10:57;;;;;;;1.42;0.90;;;10.30;99.90;;;;;;6224255;28;20045;-84
2023/04/02 08:14:00;;;;;;;4.88;4.40;;;10.30;99.90;;;;;;6224239;28;20101;-81
2023/04/02 08:17:02;;;;;;;1.88;1.23;;;10.40;99.90;;;;;;6223830;28;20090;-81
2023/04/02 08:20:05;;;;;;;2.30;2.10;;;10.50;99.90;;;;;;6223651;28;20042;-81
2023/04/02 08:23:14;;;;;;;1.13;0.95;;;10.70;99.90;;;;;;6225284;28;20440;-81
2023/04/02 08:26:18;;;;;;;1.65;0.93;;;10.90;99.90;;;;;;6226285;28;20042;-84
2023/04/02 08:29:21;;;;;;;2.03;1.10;;;11.00;99.90;;;;;;6230089;28;20046;-83
2023/04/02 08:32:25;;;;;;;2.15;0.90;;;11.20;99.90;;;;;;6228178;28;20061;-81
2023/04/02 08:35:27;;;;;;;2.75;2.22;;;11.30;99.90;;;;;;6225971;28;20054;-80
2023/04/02 08:38:29;;;;;;;1.45;1.30;;;11.50;99.90;;;;;;6227330;28;20133;-81
2023/04/02 08:41:38;;;;;;;0.93;0.88;;;11.60;99.90;;;;;;6225564;28;20700;-80
2023/04/02 08:44:50;;;;;;;2.75;1.42;;;11.70;99.90;;;;;;6223482;28;20057;-82
2023/04/02 08:47:55;;;;;;;2.88;2.00;;;11.80;99.90;;;;;;6222825;28;20105;-81
2023/04/02 08:50:57;;;;;;;1.08;0.93;;;11.90;99.90;;;;;;6223298;28;20057;-83
2023/04/02 08:54:03;;;;;;;1.15;0.82;;;12.00;99.90;;;;;;6223967;28;20038;-82
2023/04/02 08:57:09;;;;;;;1.27;0.90;;;12.10;99.90;;;;;;6224698;28;20078;-82
2023/04/02 09:00:26;;;;;;;1.85;0.93;;;12.30;99.90;;;;;;6227393;28;20068;-82
2023/04/02 09:03:32;;;;;;;4.70;1.42;;;12.60;99.90;;;;;;6224211;28;20108;-82
2023/04/02 09:06:35;;;;;;;2.28;1.10;;;12.90;99.90;;;;;;6227286;28;20045;-81
2023/04/02 09:09:38;;;;;;;1.00;0.65;;;13.20;99.90;;;;;;6229093;28;20057;-82
2023/04/02 09:12:41;;;;;;;3.38;0.85;;;13.30;99.90;;;;;;6227515;28;20413;-83
2023/04/02 09:15:49;;;;;;;2.70;0.80;;;13.40;99.90;;;;;;6228319;28;20056;-83
2023/04/02 09:18:53;;;;;;;0.70;0.70;;;13.70;99.90;;;;;;6215365;28;20057;-84
2023/04/02 09:22:03;;;;;;;0.70;0.70;;;13.90;99.90;;;;;;6227819;28;20164;-81
2023/04/02 09:25:12;;;;;;;3.60;1.48;;;14.20;99.90;;;;;;6217484;28;20054;-83
2023/04/02 09:28:15;;;;;;;15.25;12.50;;;14.10;99.90;;;;;;6216955;28;20037;-82
2023/04/02 09:31:22;;;;;;;1.35;1.10;;;14.20;99.90;;;;;;6215440;28;20051;-83
2023/04/02 09:34:28;;;;;;;14.35;12.85;;;14.40;99.90;;;;;;6215644;28;20069;-84
2023/04/02 09:37:29;;;;;;;19.13;17.17;;;14.60;99.90;;;;;;6217693;28;20054;-82
2023/04/02 09:40:34;;;;;;;11.00;9.85;;;14.90;99.90;;;;;;6213986;28;20049;-82
2023/04/02 09:43:37;;;;;;;36.42;32.78;;;15.20;99.90;;;;;;6221674;28;20046;-83
2023/04/02 09:47:02;;;;;;;28.20;25.40;;;15.30;99.90;;;;;;6215661;28;20053;-83
2023/04/02 09:50:14;;;;;;;0.70;0.70;;;15.50;99.90;;;;;;6216993;28;20057;-82
2023/04/02 09:53:29;;;;;;;0.80;0.80;;;15.80;99.90;;;;;;6216561;28;20041;-82
2023/04/02 09:56:32;;;;;;;0.75;0.57;;;16.10;99.90;;;;;;6215430;28;20050;-83
2023/04/02 09:59:34;;;;;;;2.63;2.42;;;16.50;99.90;;;;;;6216691;28;20046;-83
2023/04/02 10:02:37;;;;;;;5.45;4.95;;;16.70;99.90;;;;;;6215253;28;20045;-83
2023/04/02 10:05:40;;;;;;;1.67;1.33;;;17.10;99.90;;;;;;6217714;28;20061;-83
2023/04/02 10:08:43;;;;;;;1.05;0.75;;;17.40;99.90;;;;;;6217560;28;20053;-85
2023/04/02 10:15:05;;;;;;;0.90;0.40;;;17.30;99.90;;;;;;6213018;28;20601;-82
2023/04/02 10:18:15;;;;;;;0.50;0.50;;;16.80;99.90;;;;;;6217300;28;20046;-83
2023/04/02 10:21:19;;;;;;;0.50;0.50;;;16.60;99.90;;;;;;6217688;28;20497;-82
2023/04/02 10:24:21;;;;;;;0.55;0.35;;;16.50;99.90;;;;;;6216582;28;20042;-83
2023/04/02 10:27:30;;;;;;;0.50;0.50;;;16.60;99.90;;;;;;6217727;28;20064;-84
2023/04/02 10:30:44;;;;;;;0.35;0.35;;;16.70;99.90;;;;;;6215288;28;20045;-83
2023/04/02 10:33:51;;;;;;;0.57;0.57;;;16.80;99.90;;;;;;6215921;28;20129;-82
2023/04/02 10:36:56;;;;;;;0.32;0.32;;;17.30;99.90;;;;;;6217306;28;20492;-84
2023/04/02 10:40:07;;;;;;;0.55;0.55;;;17.40;99.90;;;;;;6218934;28;20057;-83
2023/04/02 10:44:03;;;;;;;0.40;0.40;;;17.40;99.90;;;;;;6225149;28;20069;-83
2023/04/02 10:47:14;;;;;;;0.32;0.32;;;17.50;99.90;;;;;;6182451;28;20050;-85
2023/04/02 10:50:31;;;;;;;0.70;0.20;;;17.20;99.90;;;;;;6175737;28;20057;-84
2023/04/02 10:53:41;;;;;;;1.75;0.30;;;17.10;99.90;;;;;;6203303;28;20039;-85
2023/04/02 10:56:45;;;;;;;0.60;0.57;;;17.00;99.90;;;;;;6199426;28;20081;-84
2023/04/02 11:00:36;;;;;;;0.30;0.22;;;17.30;99.90;;;;;;6199390;28;20309;-82
2023/04/02 11:03:43;;;;;;;0.35;0.35;;;17.20;99.90;;;;;;6194640;28;20048;-82
2023/04/02 11:06:51;;;;;;;0.75;0.32;;;16.80;99.90;;;;;;6203092;28;20101;-82
2023/04/02 11:09:55;;;;;;;;;;;16.60;99.90;;;;;;6197970;28;20061;-82
2023/04/02 11:13:02;;;;;;;0.40;0.40;;;16.40;99.90;;;;;;6198104;28;19925;-82
2023/04/02 11:16:04;;;;;;;0.40;0.40;;;16.30;99.90;;;;;;6196928;28;20114;-82
2023/04/02 11:19:26;;;;;;;0.40;0.40;;;16.20;99.90;;;;;;6198217;28;20117;-83
2023/04/02 11:22:29;;;;;;;2.72;0.82;;;16.00;99.90;;;;;;6195941;28;20042;-83
2023/04/02 11:25:30;;;;;;;0.43;0.40;;;15.90;99.90;;;;;;6196190;28;20054;-83
2023/04/02 11:28:33;;;;;;;0.38;0.38;;;15.70;99.90;;;;;;6196917;28;20050;-84
2023/04/02 11:31:35;;;;;;;1.02;0.95;;;15.40;99.90;;;;;;6199187;28;20051;-82
2023/04/02 11:35:19;;;;;;;1.33;0.73;;;15.20;99.90;;;;;;6192489;28;20119;-82
2023/04/02 11:38:52;;;;;;;0.57;0.50;;;15.00;99.90;;;;;;6194729;28;20042;-82
2023/04/02 11:42:03;;;;;;;0.65;0.65;;;14.90;99.90;;;;;;6197760;28;20047;-85
2023/04/02 11:45:42;;;;;;;1.23;0.70;;;14.70;99.90;;;;;;6199987;28;20382;-84
2023/04/02 11:48:44;;;;;;;3.28;1.25;;;14.70;99.90;;;;;;6200612;28;20042;-83
2023/04/02 11:51:50;;;;;;;5.00;4.60;;;14.70;99.90;;;;;;6192654;28;20057;-82
2023/04/02 11:55:21;;;;;;;14.45;12.95;;;14.70;99.90;;;;;;6195422;28;20062;-81
2023/04/02 11:58:38;;;;;;;7.95;7.15;;;14.90;99.90;;;;;;6199002;28;20058;-80
2023/04/02 12:01:58;;;;;;;4.10;3.35;;;15.00;99.90;;;;;;6193895;28;20189;-81
2023/04/02 12:05:23;;;;;;;2.33;1.77;;;15.20;99.90;;;;;;6199637;28;20039;-82
2023/04/02 12:08:38;;;;;;;2.38;1.98;;;15.30;99.90;;;;;;6195092;28;20047;-81
2023/04/02 12:11:42;;;;;;;1.33;1.23;;;15.50;99.90;;;;;;6195273;28;20125;-82
2023/04/02 12:14:46;;;;;;;5.18;4.88;;;15.70;99.90;;;;;;6193581;28;20054;-84
2023/04/02 12:17:48;;;;;;;2.50;2.40;;;15.90;99.90;;;;;;6205078;23;20047;-79
2023/04/02 12:20:52;;;;;;;0.98;0.98;;;16.10;99.90;;;;;;6184653;28;20492;-80
2023/04/02 12:23:56;;;;;;;0.73;0.60;;;16.10;99.90;;;;;;6182921;28;20042;-79
2023/04/02 12:27:13;;;;;;;0.60;0.60;;;16.20;99.90;;;;;;6174425;28;20043;-79
2023/04/02 12:30:21;;;;;;;1.15;1.05;;;16.40;99.90;;;;;;6150022;28;20197;-80
2023/04/02 12:33:32;;;;;;;1.15;0.55;;;16.60;99.90;;;;;;6147919;28;20047;-80
2023/04/02 12:36:34;;;;;;;0.70;0.70;;;16.80;99.90;;;;;;6147847;28;20051;-78
2023/04/02 12:39:36;;;;;;;1.67;1.48;;;16.90;99.90;;;;;;6145133;28;20125;-80
2023/04/02 12:42:40;;;;;;;1.50;0.82;;;16.90;99.90;;;;;;6145794;28;20054;-78
2023/04/02 12:45:41;;;;;;;1.65;0.85;;;17.00;99.90;;;;;;6146648;28;20476;-78
2023/04/02 12:48:43;;;;;;;1.10;0.68;;;17.00;99.90;;;;;;6146359;28;20077;-78
2023/04/02 12:51:46;;;;;;;1.02;1.00;;;17.00;99.90;;;;;;6145365;28;20051;-78
2023/04/02 12:54:49;;;;;;;2.08;1.88;;;16.90;99.90;;;;;;6144085;28;20490;-77
2023/04/02 12:57:57;;;;;;;1.45;1.35;;;16.30;99.90;;;;;;6146308;28;20062;-78
2023/04/02 13:01:11;;;;;;;1.50;1.13;;;15.90;99.90;;;;;;6147804;28;20047;-78
2023/04/02 13:04:13;;;;;;;1.35;1.25;;;15.50;99.90;;;;;;6146330;28;20043;-78
2023/04/02 13:07:18;;;;;;;1.13;0.98;;;15.20;99.90;;;;;;6151412;28;20043;-77
2023/04/02 13:10:25;;;;;;;2.08;1.80;;;14.80;99.90;;;;;;6149531;28;20059;-77
2023/04/02 13:13:32;;;;;;;1.52;1.38;;;14.50;99.90;;;;;;6143509;28;20047;-78
2023/04/02 13:16:37;;;;;;;1.63;1.48;;;14.40;99.90;;;;;;6140203;28;20118;-78
2023/04/02 13:19:39;;;;;;;1.67;1.45;;;14.30;99.90;;;;;;6146596;28;20050;-78
2023/04/02 13:22:40;;;;;;;1.80;1.58;;;14.20;99.90;;;;;;6145387;28;20129;-79
2023/04/02 13:25:42;;;;;;;2.15;1.85;;;14.10;99.90;;;;;;6145607;28;20062;-78
2023/04/02 13:28:56;;;;;;;1.48;1.38;;;14.10;99.90;;;;;;6145148;28;20051;-79
2023/04/02 13:32:00;;;;;;;2.13;2.03;;;13.90;99.90;;;;;;6144563;28;20043;-78
2023/04/02 13:35:02;;;;;;;2.30;2.10;;;13.80;99.90;;;;;;6144084;28;20061;-78
2023/04/02 13:38:04;;;;;;;2.17;2.03;;;13.80;99.90;;;;;;6144172;28;21298;-78
2023/04/02 13:41:06;;;;;;;2.60;2.25;;;13.80;99.90;;;;;;6145148;28;20054;-78
2023/04/02 13:44:19;;;;;;;1.85;1.75;;;13.70;99.90;;;;;;6144435;28;20054;-78
2023/04/02 13:47:21;;;;;;;3.33;2.13;;;13.70;99.90;;;;;;6146136;28;20047;-78
2023/04/02 13:50:24;;;;;;;2.22;2.10;;;13.60;99.90;;;;;;6145168;28;20051;-78
2023/04/02 13:53:35;;;;;;;2.67;2.47;;;13.40;99.90;;;;;;6143457;28;20054;-77
2023/04/02 13:56:37;;;;;;;2.60;2.40;;;13.20;99.90;;;;;;6142309;28;20047;-78
2023/04/02 13:59:41;;;;;;;2.70;2.50;;;13.10;99.90;;;;;;6144215;28;20043;-78
2023/04/02 14:02:46;;;;;;;2.17;2.08;;;12.90;99.90;;;;;;6143137;28;20043;-77
2023/04/02 14:05:55;;;;;;;2.05;1.85;;;12.70;99.90;;;;;;6153254;28;20046;-78
2023/04/02 14:09:03;;;;;;;2.00;1.90;;;12.50;99.90;;;;;;6151613;28;20097;-78
2023/04/02 14:12:13;;;;;;;2.92;1.52;;;12.40;99.90;;;;;;6149755;28;20046;-78
2023/04/02 14:15:38;;;;;;;1.50;1.40;;;12.20;99.90;;;;;;6159007;28;20421;-78
2023/04/02 14:18:54;;;;;;;1.77;1.67;;;12.00;99.90;;;;;;6147774;28;20055;-77
2023/04/02 14:22:08;;;;;;;1.70;1.60;;;11.80;99.90;;;;;;6148904;28;20398;-78
2023/04/02 14:25:22;;;;;;;2.10;2.00;;;11.70;99.90;;;;;;6153846;28;20051;-78
2023/04/02 14:28:36;;;;;;;1.70;1.60;;;11.60;99.90;;;;;;6147548;28;20051;-78
2023/04/02 14:31:44;;;;;;;1.90;1.80;;;11.40;99.90;;;;;;6148515;28;20051;-77
2023/04/02 14:34:51;;;;;;;2.28;2.05;;;11.30;99.90;;;;;;6148147;28;20055;-77
2023/04/02 14:38:05;;;;;;;1.92;1.77;;;11.20;99.90;;;;;;6147285;28;20055;-77
2023/04/02 14:41:13;;;;;;;1.15;1.10;;;11.10;99.90;;;;;;6145630;28;20074;-80
2023/04/02 14:44:18;;;;;;;1.52;1.42;;;11.00;99.90;;;;;;6148053;28;20055;-78
2023/04/02 14:47:29;;;;;;;1.00;0.95;;;11.00;99.90;;;;;;6147922;28;20055;-76
2023/04/02 14:50:35;;;;;;;1.08;1.00;;;10.90;99.90;;;;;;6150293;28;20043;-77
2023/04/02 14:53:52;;;;;;;1.88;1.23;;;10.90;99.90;;;;;;6148615;28;20089;-77
2023/04/02 14:56:57;;;;;;;1.60;1.50;;;10.80;99.90;;;;;;6150523;28;20402;-77
2023/04/02 15:00:03;;;;;;;1.95;1.75;;;10.80;99.90;;;;;;6148606;28;20055;-78
2023/04/02 15:03:12;;;;;;;1.90;1.33;;;10.80;99.90;;;;;;6148225;28;20051;-78
2023/04/02 15:06:20;;;;;;;1.38;1.27;;;10.80;99.90;;;;;;6149813;28;20038;-77
2023/04/02 15:09:26;;;;;;;1.17;0.90;;;10.70;99.90;;;;;;6150310;28;20138;-77
2023/04/02 15:12:32;;;;;;;0.70;0.70;;;10.70;99.90;;;;;;6144318;28;20051;-77
2023/04/02 15:15:41;;;;;;;1.40;1.30;;;10.60;99.90;;;;;;6145747;28;20050;-78
2023/04/02 15:18:43;;;;;;;;;;;10.50;99.90;;;;;;6147252;28;20049;-76
2023/04/02 15:22:00;;;;;;;2.67;1.20;;;10.50;99.90;;;;;;6159188;28;19910;-78
2023/04/02 15:25:13;;;;;;;0.90;0.90;;;10.50;99.90;;;;;;6153146;28;20043;-78
2023/04/02 15:28:23;;;;;;;1.45;1.35;;;10.50;99.90;;;;;;6146678;28;20190;-77
2023/04/02 15:31:27;;;;;;;0.65;0.65;;;10.40;99.90;;;;;;6145269;28;20051;-76
2023/04/02 15:34:34;;;;;;;1.90;1.08;;;10.40;99.90;;;;;;6144683;28;20055;-76
2023/04/02 15:38:08;;;;;;;0.93;0.93;;;10.30;99.90;;;;;;6151116;28;20518;-77
2023/04/02 15:41:16;;;;;;;3.85;1.00;;;10.20;99.90;;;;;;6147125;28;20058;-77
2023/04/02 15:44:21;;;;;;;2.47;2.28;;;10.20;99.90;;;;;;6147355;28;20490;-78
2023/04/02 15:47:31;;;;;;;1.02;0.95;;;10.10;99.90;;;;;;6147717;28;20062;-77
2023/04/02 15:50:47;;;;;;;0.85;0.85;;;10.10;99.90;;;;;;6146971;28;20413;-77
2023/04/02 15:53:59;;;;;;;2.30;0.98;;;10.10;99.90;;;;;;6148025;28;20063;-77
2023/04/02 15:57:15;;;;;;;1.02;0.93;;;10.00;99.90;;;;;;6145702;28;20058;-77
2023/04/02 16:00:25;;;;;;;1.20;1.10;;;9.90;99.90;;;;;;6147596;28;20414;-77
2023/04/02 16:03:49;;;;;;;1.45;1.35;;;9.80;99.90;;;;;;6147685;28;20391;-78
2023/04/02 16:07:19;;;;;;;3.63;2.60;;;9.90;99.90;;;;;;6148311;28;20043;-78
2023/04/02 16:10:26;;;;;;;1.67;1.48;;;10.00;99.90;;;;;;6147121;28;20063;-78
2023/04/02 16:13:30;;;;;;;3.92;3.63;;;10.00;99.90;;;;;;6148386;28;20070;-80
2023/04/02 16:16:34;;;;;;;2.08;1.90;;;10.20;99.90;;;;;;6148776;28;20051;-79
2023/04/02 16:19:41;;;;;;;3.50;2.70;;;10.20;99.90;;;;;;6149131;28;20059;-78
2023/04/02 16:22:48;;;;;;;4.32;2.72;;;10.20;99.90;;;;;;6149356;28;20059;-78
2023/04/02 16:25:57;;;;;;;2.83;1.65;;;10.20;99.90;;;;;;6148027;28;20055;-78
2023/04/02 16:29:17;;;;;;;2.08;1.95;;;10.30;99.90;;;;;;6165251;28;20051;-78